sensor_id;sensor_type;location;lat;lon;timestamp;temperature;humidity
42421;DHT22;28063;48.140;11.588;2022-12-07T00:03:49;3.30;99.90
42421;DHT22;28063;48.140;11.588;2022-12-07T00:06:16;3.30;99.90
42421;DHT22;28063;48.140;11.588;2022-12-07T00:08:42;3.30;99.90
42421;DHT22;28063;48.140;11.588;2022-12-07T00:11:13;3.30;99.90
42421;DHT22;28063;48.140;11.588;2022-12-07T00:13:40;3.40;99.90
42421;DHT22;28063;48.140;11.588;2022-12-07T00:16:12;3.40;99.90
42421;DHT22;28063;48.140;11.588;2022-12-07T00:18:38;3.40;99.90
42421;DHT22;28063;48.140;11.588;2022-12-07T00:21:06;3.30;99.90
42421;DHT22;28063;48.140;11.588;2022-12-07T00:23:32;3.30;99.90
42421;DHT22;28063;48.140;11.588;2022-12-07T00:26:06;3.30;99.90
42421;DHT22;28063;48.140;11.588;2022-12-07T00:28:32;3.30;99.90
42421;DHT22;28063;48.140;11.588;2022-12-07T00:31:12;3.30;99.90
42421;DHT22;28063;48.140;11.588;2022-12-07T00:33:38;3.30;99.90
42421;DHT22;28063;48.140;11.588;2022-12-07T00:36:09;3.30;99.90
42421;DHT22;28063;48.140;11.588;2022-12-07T00:38:36;3.20;99.90
42421;DHT22;28063;48.140;11.588;2022-12-07T00:41:04;3.20;99.90
42421;DHT22;28063;48.140;11.588;2022-12-07T00:43:32;3.20;99.90
42421;DHT22;28063;48.140;11.588;2022-12-07T00:45:57;3.20;99.90
42421;DHT22;28063;48.140;11.588;2022-12-07T00:48:24;3.10;99.90
42421;DHT22;28063;48.140;11.588;2022-12-07T00:50:50;3.20;99.90
42421;DHT22;28063;48.140;11.588;2022-12-07T00:53:15;3.10;99.90
42421;DHT22;28063;48.140;11.588;2022-12-07T00:55:42;3.10;99.90
42421;DHT22;28063;48.140;11.588;2022-12-07T00:58:07;3.20;99.90
42421;DHT22;28063;48.140;11.588;2022-12-07T01:00:36;3.20;99.90
42421;DHT22;28063;48.140;11.588;2022-12-07T01:03:02;3.20;99.90
42421;DHT22;28063;48.140;11.588;2022-12-07T01:05:27;3.20;99.90
42421;DHT22;28063;48.140;11.588;2022-12-07T01:07:53;3.20;99.90
42421;DHT22;28063;48.140;11.588;2022-12-07T01:10:19;3.20;99.90
42421;DHT22;28063;48.140;11.588;2022-12-07T01:12:46;3.10;99.90
42421;DHT22;28063;48.140;11.588;2022-12-07T01:15:12;3.10;99.90
42421;DHT22;28063;48.140;11.588;2022-12-07T01:17:38;3.10;99.90
42421;DHT22;28063;48.140;11.588;2022-12-07T01:20:04;3.10;99.90
42421;DHT22;28063;48.140;11.588;2022-12-07T01:22:30;3.10;99.90
42421;DHT22;28063;48.140;11.588;2022-12-07T01:24:55;3.10;99.90
42421;DHT22;28063;48.140;11.588;2022-12-07T01:27:21;3.10;99.90
42421;DHT22;28063;48.140;11.588;2022-12-07T01:29:47;3.10;99.90
42421;DHT22;28063;48.140;11.588;2022-12-07T01:32:12;3.10;99.90
42421;DHT22;28063;48.140;11.588;2022-12-07T01:34:38;3.10;99.90
42421;DHT22;28063;48.140;11.588;2022-12-07T01:37:04;3.00;99.90
42421;DHT22;28063;48.140;11.588;2022-12-07T01:39:29;3.00;99.90
42421;DHT22;28063;48.140;11.588;2022-12-07T01:41:55;3.00;99.90
42421;DHT22;28063;48.140;11.588;2022-12-07T01:44:26;3.00;99.90
42421;DHT22;28063;48.140;11.588;2022-12-07T01:46:54;3.00;99.90
42421;DHT22;28063;48.140;11.588;2022-12-07T01:54:46;3.00;99.90
42421;DHT22;28063;48.140;11.588;2022-12-07T01:57:15;3.00;99.90
42421;DHT22;28063;48.140;11.588;2022-12-07T01:59:42;3.00;99.90
42421;DHT22;28063;48.140;11.588;2022-12-07T02:02:16;3.00;99.90
42421;DHT22;28063;48.140;11.588;2022-12-07T02:04:43;3.00;99.90
42421;DHT22;28063;48.140;11.588;2022-12-07T02:07:09;3.00;99.90
42421;DHT22;28063;48.140;11.588;2022-12-07T02:09:34;3.00;99.90
42421;DHT22;28063;48.140;11.588;2022-12-07T02:12:01;3.00;99.90
42421;DHT22;28063;48.140;11.588;2022-12-07T02:14:26;3.00;99.90
42421;DHT22;28063;48.140;11.588;2022-12-07T02:17:21;3.00;99.90
42421;DHT22;28063;48.140;11.588;2022-12-07T02:28:37;3.00;99.90
42421;DHT22;28063;48.140;11.588;2022-12-07T02:31:12;3.00;99.90
42421;DHT22;28063;48.140;11.588;2022-12-07T02:33:50;2.90;99.90
42421;DHT22;28063;48.140;11.588;2022-12-07T02:36:27;3.00;99.90
42421;DHT22;28063;48.140;11.588;2022-12-07T02:39:17;3.00;99.90
42421;DHT22;28063;48.140;11.588;2022-12-07T02:41:49;3.00;99.90
42421;DHT22;28063;48.140;11.588;2022-12-07T02:44:23;2.90;99.90
42421;DHT22;28063;48.140;11.588;2022-12-07T02:47:03;2.90;99.90
42421;DHT22;28063;48.140;11.588;2022-12-07T02:49:31;2.90;99.90
42421;DHT22;28063;48.140;11.588;2022-12-07T02:51:57;2.90;99.90
42421;DHT22;28063;48.140;11.588;2022-12-07T02:54:23;2.90;99.90
42421;DHT22;28063;48.140;11.588;2022-12-07T03:16:15;3.00;99.90
42421;DHT22;28063;48.140;11.588;2022-12-07T03:21:23;3.00;99.90
42421;DHT22;28063;48.140;11.588;2022-12-07T03:23:56;3.00;99.90
42421;DHT22;28063;48.140;11.588;2022-12-07T03:26:34;3.00;99.90
42421;DHT22;28063;48.140;11.588;2022-12-07T03:29:19;3.00;99.90
42421;DHT22;28063;48.140;11.588;2022-12-07T03:32:05;3.00;99.90
42421;DHT22;28063;48.140;11.588;2022-12-07T03:37:19;3.00;99.90
42421;DHT22;28063;48.140;11.588;2022-12-07T03:40:43;3.00;99.90
42421;DHT22;28063;48.140;11.588;2022-12-07T03:42:48;3.00;99.90
42421;DHT22;28063;48.140;11.588;2022-12-07T03:45:14;3.00;99.90
42421;DHT22;28063;48.140;11.588;2022-12-07T03:50:28;3.00;99.90
42421;DHT22;28063;48.140;11.588;2022-12-07T03:53:04;3.00;99.90
42421;DHT22;28063;48.140;11.588;2022-12-07T03:55:33;3.00;99.90
42421;DHT22;28063;48.140;11.588;2022-12-07T03:58:06;3.00;99.90
42421;DHT22;28063;48.140;11.588;2022-12-07T04:00:34;3.00;99.90
42421;DHT22;28063;48.140;11.588;2022-12-07T04:03:00;3.00;99.90
42421;DHT22;28063;48.140;11.588;2022-12-07T04:05:26;3.00;99.90
42421;DHT22;28063;48.140;11.588;2022-12-07T04:07:51;2.90;99.90
42421;DHT22;28063;48.140;11.588;2022-12-07T04:10:18;2.90;99.90
42421;DHT22;28063;48.140;11.588;2022-12-07T04:12:44;2.90;99.90
42421;DHT22;28063;48.140;11.588;2022-12-07T04:15:10;2.90;99.90
42421;DHT22;28063;48.140;11.588;2022-12-07T04:17:36;2.90;99.90
42421;DHT22;28063;48.140;11.588;2022-12-07T04:20:02;2.90;99.90
42421;DHT22;28063;48.140;11.588;2022-12-07T04:22:29;2.90;99.90
42421;DHT22;28063;48.140;11.588;2022-12-07T04:24:55;2.90;99.90
42421;DHT22;28063;48.140;11.588;2022-12-07T04:27:20;2.90;99.90
42421;DHT22;28063;48.140;11.588;2022-12-07T04:29:49;2.90;99.90
42421;DHT22;28063;48.140;11.588;2022-12-07T04:32:17;2.90;99.90
42421;DHT22;28063;48.140;11.588;2022-12-07T04:34:43;2.90;99.90
42421;DHT22;28063;48.140;11.588;2022-12-07T04:37:08;2.90;99.90
42421;DHT22;28063;48.140;11.588;2022-12-07T04:39:34;2.90;99.90
42421;DHT22;28063;48.140;11.588;2022-12-07T04:42:00;2.90;99.90
42421;DHT22;28063;48.140;11.588;2022-12-07T04:44:28;2.90;99.90
42421;DHT22;28063;48.140;11.588;2022-12-07T04:46:55;2.90;99.90
42421;DHT22;28063;48.140;11.588;2022-12-07T04:49:20;2.90;99.90
42421;DHT22;28063;48.140;11.588;2022-12-07T04:51:47;2.90;99.90
42421;DHT22;28063;48.140;11.588;2022-12-07T04:54:14;2.90;99.90
42421;DHT22;28063;48.140;11.588;2022-12-07T04:56:39;2.90;99.90
42421;DHT22;28063;48.140;11.588;2022-12-07T04:59:05;2.90;99.90
42421;DHT22;28063;48.140;11.588;2022-12-07T05:01:31;2.90;99.90
42421;DHT22;28063;48.140;11.588;2022-12-07T05:03:57;2.90;99.90
42421;DHT22;28063;48.140;11.588;2022-12-07T05:06:23;2.90;99.90
42421;DHT22;28063;48.140;11.588;2022-12-07T05:08:49;2.90;99.90
42421;DHT22;28063;48.140;11.588;2022-12-07T05:11:15;2.90;99.90
42421;DHT22;28063;48.140;11.588;2022-12-07T05:14:00;2.90;99.90
42421;DHT22;28063;48.140;11.588;2022-12-07T05:16:26;2.80;99.90
42421;DHT22;28063;48.140;11.588;2022-12-07T05:18:52;2.80;99.90
42421;DHT22;28063;48.140;11.588;2022-12-07T05:21:18;2.80;99.90
42421;DHT22;28063;48.140;11.588;2022-12-07T05:23:43;2.80;99.90
42421;DHT22;28063;48.140;11.588;2022-12-07T05:26:09;2.80;99.90
42421;DHT22;28063;48.140;11.588;2022-12-07T05:28:35;2.80;99.90
42421;DHT22;28063;48.140;11.588;2022-12-07T05:31:01;2.80;99.90
42421;DHT22;28063;48.140;11.588;2022-12-07T05:33:27;2.80;99.90
42421;DHT22;28063;48.140;11.588;2022-12-07T05:35:52;2.80;99.90
42421;DHT22;28063;48.140;11.588;2022-12-07T05:38:25;2.80;99.90
42421;DHT22;28063;48.140;11.588;2022-12-07T05:41:15;2.80;99.90
42421;DHT22;28063;48.140;11.588;2022-12-07T05:44:10;2.80;99.90
42421;DHT22;28063;48.140;11.588;2022-12-07T05:46:56;2.80;99.90
42421;DHT22;28063;48.140;11.588;2022-12-07T05:49:58;2.80;99.90
42421;DHT22;28063;48.140;11.588;2022-12-07T05:52:29;2.80;99.90
42421;DHT22;28063;48.140;11.588;2022-12-07T05:54:58;2.90;99.90
42421;DHT22;28063;48.140;11.588;2022-12-07T05:57:24;2.80;99.90
42421;DHT22;28063;48.140;11.588;2022-12-07T05:59:49;2.80;99.90
42421;DHT22;28063;48.140;11.588;2022-12-07T06:02:16;2.70;99.90
42421;DHT22;28063;48.140;11.588;2022-12-07T06:04:46;2.70;99.90
42421;DHT22;28063;48.140;11.588;2022-12-07T06:07:13;2.70;99.90
42421;DHT22;28063;48.140;11.588;2022-12-07T06:09:39;2.60;99.90
42421;DHT22;28063;48.140;11.588;2022-12-07T06:12:05;2.70;99.90
42421;DHT22;28063;48.140;11.588;2022-12-07T06:14:50;2.60;99.90
42421;DHT22;28063;48.140;11.588;2022-12-07T06:17:16;2.60;99.90
42421;DHT22;28063;48.140;11.588;2022-12-07T06:19:42;2.70;99.90
42421;DHT22;28063;48.140;11.588;2022-12-07T06:22:08;2.60;99.90
42421;DHT22;28063;48.140;11.588;2022-12-07T06:25:01;2.70;99.90
42421;DHT22;28063;48.140;11.588;2022-12-07T06:27:40;2.70;99.90
42421;DHT22;28063;48.140;11.588;2022-12-07T06:30:29;2.70;99.90
42421;DHT22;28063;48.140;11.588;2022-12-07T06:32:56;2.70;99.90
42421;DHT22;28063;48.140;11.588;2022-12-07T06:35:21;2.70;99.90
42421;DHT22;28063;48.140;11.588;2022-12-07T06:37:47;2.70;99.90
42421;DHT22;28063;48.140;11.588;2022-12-07T06:40:13;2.70;99.90
42421;DHT22;28063;48.140;11.588;2022-12-07T06:42:38;2.70;99.90
42421;DHT22;28063;48.140;11.588;2022-12-07T06:45:04;2.70;99.90
42421;DHT22;28063;48.140;11.588;2022-12-07T06:47:30;2.70;99.90
42421;DHT22;28063;48.140;11.588;2022-12-07T06:49:56;2.80;99.90
42421;DHT22;28063;48.140;11.588;2022-12-07T06:52:22;2.70;99.90
42421;DHT22;28063;48.140;11.588;2022-12-07T06:54:47;2.80;99.90
42421;DHT22;28063;48.140;11.588;2022-12-07T06:57:15;2.80;99.90
42421;DHT22;28063;48.140;11.588;2022-12-07T06:59:41;2.70;99.90
42421;DHT22;28063;48.140;11.588;2022-12-07T07:02:10;2.80;99.90
42421;DHT22;28063;48.140;11.588;2022-12-07T07:04:39;2.80;99.90
42421;DHT22;28063;48.140;11.588;2022-12-07T07:07:05;2.80;99.90
42421;DHT22;28063;48.140;11.588;2022-12-07T07:09:30;2.80;99.90
42421;DHT22;28063;48.140;11.588;2022-12-07T07:11:56;2.80;99.90
42421;DHT22;28063;48.140;11.588;2022-12-07T07:14:28;2.80;99.90
42421;DHT22;28063;48.140;11.588;2022-12-07T07:16:54;2.80;99.90
42421;DHT22;28063;48.140;11.588;2022-12-07T07:19:20;2.80;99.90
42421;DHT22;28063;48.140;11.588;2022-12-07T07:24:37;2.90;99.90
42421;DHT22;28063;48.140;11.588;2022-12-07T07:30:39;2.90;99.90
42421;DHT22;28063;48.140;11.588;2022-12-07T07:33:05;3.00;99.90
42421;DHT22;28063;48.140;11.588;2022-12-07T07:36:10;3.00;99.90
42421;DHT22;28063;48.140;11.588;2022-12-07T07:38:56;3.00;99.90
42421;DHT22;28063;48.140;11.588;2022-12-07T07:41:25;3.10;99.90
42421;DHT22;28063;48.140;11.588;2022-12-07T07:43:50;3.10;99.90
42421;DHT22;28063;48.140;11.588;2022-12-07T08:10:04;3.30;99.90
42421;DHT22;28063;48.140;11.588;2022-12-07T08:23:48;3.50;99.90
42421;DHT22;28063;48.140;11.588;2022-12-07T08:26:26;3.50;99.90
42421;DHT22;28063;48.140;11.588;2022-12-07T08:28:55;3.50;99.90
42421;DHT22;28063;48.140;11.588;2022-12-07T08:31:20;3.50;99.90
42421;DHT22;28063;48.140;11.588;2022-12-07T08:33:47;3.50;99.90
42421;DHT22;28063;48.140;11.588;2022-12-07T08:36:13;3.60;99.90
42421;DHT22;28063;48.140;11.588;2022-12-07T08:38:40;3.60;99.90
42421;DHT22;28063;48.140;11.588;2022-12-07T08:41:07;3.70;99.90
42421;DHT22;28063;48.140;11.588;2022-12-07T08:43:33;3.70;99.90
42421;DHT22;28063;48.140;11.588;2022-12-07T08:48:46;3.80;99.90
42421;DHT22;28063;48.140;11.588;2022-12-07T08:51:13;3.80;99.90
42421;DHT22;28063;48.140;11.588;2022-12-07T08:53:39;3.90;99.90
42421;DHT22;28063;48.140;11.588;2022-12-07T08:56:06;3.90;99.90
42421;DHT22;28063;48.140;11.588;2022-12-07T08:58:33;4.00;99.90
42421;DHT22;28063;48.140;11.588;2022-12-07T09:00:59;4.00;99.90
42421;DHT22;28063;48.140;11.588;2022-12-07T09:03:25;4.10;99.90
42421;DHT22;28063;48.140;11.588;2022-12-07T09:05:54;4.00;99.90
42421;DHT22;28063;48.140;11.588;2022-12-07T09:08:45;4.10;99.90
42421;DHT22;28063;48.140;11.588;2022-12-07T09:36:24;4.40;99.00
42421;DHT22;28063;48.140;11.588;2022-12-07T09:39:30;4.50;99.30
42421;DHT22;28063;48.140;11.588;2022-12-07T09:55:51;5.10;98.20
42421;DHT22;28063;48.140;11.588;2022-12-07T10:14:57;5.20;95.80
42421;DHT22;28063;48.140;11.588;2022-12-07T11:01:39;6.60;90.00
42421;DHT22;28063;48.140;11.588;2022-12-07T11:10:31;6.70;88.70
42421;DHT22;28063;48.140;11.588;2022-12-07T11:20:01;6.40;86.30
42421;DHT22;28063;48.140;11.588;2022-12-07T11:45:30;6.50;86.10
42421;DHT22;28063;48.140;11.588;2022-12-07T12:06:46;6.30;85.60
42421;DHT22;28063;48.140;11.588;2022-12-07T12:45:03;6.20;83.00
42421;DHT22;28063;48.140;11.588;2022-12-07T13:33:50;4.90;88.00
42421;DHT22;28063;48.140;11.588;2022-12-07T13:36:48;4.90;88.00
42421;DHT22;28063;48.140;11.588;2022-12-07T14:01:35;4.30;91.00
42421;DHT22;28063;48.140;11.588;2022-12-07T14:11:42;4.10;91.30
42421;DHT22;28063;48.140;11.588;2022-12-07T14:29:53;3.90;91.90
42421;DHT22;28063;48.140;11.588;2022-12-07T14:36:03;3.80;92.20
42421;DHT22;28063;48.140;11.588;2022-12-07T14:38:57;3.80;92.40
42421;DHT22;28063;48.140;11.588;2022-12-07T15:40:39;3.70;92.00
42421;DHT22;28063;48.140;11.588;2022-12-07T17:57:18;2.40;98.80
42421;DHT22;28063;48.140;11.588;2022-12-07T18:00:05;2.30;99.10
42421;DHT22;28063;48.140;11.588;2022-12-07T18:02:43;2.20;99.40
42421;DHT22;28063;48.140;11.588;2022-12-07T22:13:19;3.00;98.90
